sensor_id;sensor_type;location;lat;lon;timestamp;temperature;humidity
770;DHT22;368;48.698;9.116;2023-08-01T00:00:12;16.80;99.90
770;DHT22;368;48.698;9.116;2023-08-01T00:02:39;16.90;99.90
770;DHT22;368;48.698;9.116;2023-08-01T00:05:08;16.90;99.90
770;DHT22;368;48.698;9.116;2023-08-01T00:07:36;16.90;99.90
770;DHT22;368;48.698;9.116;2023-08-01T00:10:03;16.90;99.90
770;DHT22;368;48.698;9.116;2023-08-01T00:12:30;16.90;99.90
770;DHT22;368;48.698;9.116;2023-08-01T00:14:57;16.60;99.90
770;DHT22;368;48.698;9.116;2023-08-01T00:17:24;16.90;99.90
770;DHT22;368;48.698;9.116;2023-08-01T00:19:51;16.50;99.90
770;DHT22;368;48.698;9.116;2023-08-01T00:22:18;16.90;99.90
770;DHT22;368;48.698;9.116;2023-08-01T00:24:46;16.90;99.90
770;DHT22;368;48.698;9.116;2023-08-01T00:27:13;17.00;99.90
770;DHT22;368;48.698;9.116;2023-08-01T00:29:40;16.90;99.90
770;DHT22;368;48.698;9.116;2023-08-01T00:32:07;16.90;99.90
770;DHT22;368;48.698;9.116;2023-08-01T00:34:34;16.80;99.90
770;DHT22;368;48.698;9.116;2023-08-01T00:37:00;16.80;99.90
770;DHT22;368;48.698;9.116;2023-08-01T00:39:27;16.80;99.90
770;DHT22;368;48.698;9.116;2023-08-01T00:41:55;16.80;99.90
770;DHT22;368;48.698;9.116;2023-08-01T00:44:22;16.80;99.90
770;DHT22;368;48.698;9.116;2023-08-01T00:46:49;16.80;99.90
770;DHT22;368;48.698;9.116;2023-08-01T00:49:16;16.90;99.90
770;DHT22;368;48.698;9.116;2023-08-01T00:51:44;16.90;99.90
770;DHT22;368;48.698;9.116;2023-08-01T00:54:11;16.90;99.90
770;DHT22;368;48.698;9.116;2023-08-01T00:56:38;16.90;99.90
770;DHT22;368;48.698;9.116;2023-08-01T00:59:06;16.90;99.90
770;DHT22;368;48.698;9.116;2023-08-01T01:01:33;16.70;99.90
770;DHT22;368;48.698;9.116;2023-08-01T01:04:00;16.90;99.90
770;DHT22;368;48.698;9.116;2023-08-01T01:06:32;16.90;99.90
770;DHT22;368;48.698;9.116;2023-08-01T01:08:59;16.90;99.90
770;DHT22;368;48.698;9.116;2023-08-01T01:11:26;16.60;99.90
770;DHT22;368;48.698;9.116;2023-08-01T01:13:53;16.90;99.90
770;DHT22;368;48.698;9.116;2023-08-01T01:16:21;17.00;99.90
770;DHT22;368;48.698;9.116;2023-08-01T01:18:48;16.90;99.90
770;DHT22;368;48.698;9.116;2023-08-01T01:21:16;17.00;99.90
770;DHT22;368;48.698;9.116;2023-08-01T01:23:43;16.90;99.90
770;DHT22;368;48.698;9.116;2023-08-01T01:26:10;17.00;99.90
770;DHT22;368;48.698;9.116;2023-08-01T01:28:38;17.00;99.90
770;DHT22;368;48.698;9.116;2023-08-01T01:31:06;17.00;99.90
770;DHT22;368;48.698;9.116;2023-08-01T01:33:34;16.90;99.90
770;DHT22;368;48.698;9.116;2023-08-01T01:36:01;16.90;99.90
770;DHT22;368;48.698;9.116;2023-08-01T01:38:29;16.90;99.90
770;DHT22;368;48.698;9.116;2023-08-01T01:40:56;16.70;99.90
770;DHT22;368;48.698;9.116;2023-08-01T01:43:23;16.70;99.90
770;DHT22;368;48.698;9.116;2023-08-01T01:45:49;16.60;99.90
770;DHT22;368;48.698;9.116;2023-08-01T01:48:16;16.50;99.90
770;DHT22;368;48.698;9.116;2023-08-01T01:50:43;16.60;99.90
770;DHT22;368;48.698;9.116;2023-08-01T01:53:10;16.50;99.90
770;DHT22;368;48.698;9.116;2023-08-01T01:55:38;16.60;99.90
770;DHT22;368;48.698;9.116;2023-08-01T01:58:05;16.50;99.90
770;DHT22;368;48.698;9.116;2023-08-01T02:00:32;16.50;99.90
770;DHT22;368;48.698;9.116;2023-08-01T02:02:59;16.60;99.90
770;DHT22;368;48.698;9.116;2023-08-01T02:05:28;16.50;99.90
770;DHT22;368;48.698;9.116;2023-08-01T02:07:55;16.50;99.90
770;DHT22;368;48.698;9.116;2023-08-01T02:10:22;16.60;99.90
770;DHT22;368;48.698;9.116;2023-08-01T02:12:50;16.60;99.90
770;DHT22;368;48.698;9.116;2023-08-01T02:15:17;16.50;99.90
770;DHT22;368;48.698;9.116;2023-08-01T02:17:43;16.50;99.90
770;DHT22;368;48.698;9.116;2023-08-01T02:20:11;16.70;99.90
770;DHT22;368;48.698;9.116;2023-08-01T02:22:37;16.60;99.90
770;DHT22;368;48.698;9.116;2023-08-01T02:25:05;16.60;99.90
770;DHT22;368;48.698;9.116;2023-08-01T02:27:32;16.60;99.90
770;DHT22;368;48.698;9.116;2023-08-01T02:30:00;16.60;99.90
770;DHT22;368;48.698;9.116;2023-08-01T02:32:27;16.70;99.90
770;DHT22;368;48.698;9.116;2023-08-01T02:34:53;16.70;99.90
770;DHT22;368;48.698;9.116;2023-08-01T02:37:20;16.30;99.90
770;DHT22;368;48.698;9.116;2023-08-01T02:39:47;16.80;99.90
770;DHT22;368;48.698;9.116;2023-08-01T02:42:14;16.80;99.90
770;DHT22;368;48.698;9.116;2023-08-01T02:44:41;16.80;99.90
770;DHT22;368;48.698;9.116;2023-08-01T02:47:09;16.90;99.90
770;DHT22;368;48.698;9.116;2023-08-01T02:49:35;16.90;99.90
770;DHT22;368;48.698;9.116;2023-08-01T02:52:03;16.70;99.90
770;DHT22;368;48.698;9.116;2023-08-01T02:54:30;16.70;99.90
770;DHT22;368;48.698;9.116;2023-08-01T02:56:56;16.80;99.90
770;DHT22;368;48.698;9.116;2023-08-01T02:59:23;16.80;99.90
770;DHT22;368;48.698;9.116;2023-08-01T03:01:50;16.80;99.90
770;DHT22;368;48.698;9.116;2023-08-01T03:04:18;16.90;99.90
770;DHT22;368;48.698;9.116;2023-08-01T03:06:45;16.50;99.90
770;DHT22;368;48.698;9.116;2023-08-01T03:09:12;16.90;99.90
770;DHT22;368;48.698;9.116;2023-08-01T03:11:39;16.90;99.90
770;DHT22;368;48.698;9.116;2023-08-01T03:14:05;16.90;99.90
770;DHT22;368;48.698;9.116;2023-08-01T03:16:32;17.00;99.90
770;DHT22;368;48.698;9.116;2023-08-01T03:18:59;16.90;99.90
770;DHT22;368;48.698;9.116;2023-08-01T03:21:31;16.90;99.90
770;DHT22;368;48.698;9.116;2023-08-01T03:23:58;16.90;99.90
770;DHT22;368;48.698;9.116;2023-08-01T03:26:25;17.00;99.90
770;DHT22;368;48.698;9.116;2023-08-01T03:28:53;17.00;99.90
770;DHT22;368;48.698;9.116;2023-08-01T03:31:21;17.00;99.90
770;DHT22;368;48.698;9.116;2023-08-01T03:33:48;17.00;99.90
770;DHT22;368;48.698;9.116;2023-08-01T03:36:14;17.20;99.90
770;DHT22;368;48.698;9.116;2023-08-01T03:38:43;17.10;99.90
770;DHT22;368;48.698;9.116;2023-08-01T03:41:10;17.20;99.90
770;DHT22;368;48.698;9.116;2023-08-01T03:43:36;17.20;99.90
770;DHT22;368;48.698;9.116;2023-08-01T03:46:03;17.30;99.90
770;DHT22;368;48.698;9.116;2023-08-01T03:48:30;17.30;99.90
770;DHT22;368;48.698;9.116;2023-08-01T03:50:57;17.30;99.90
770;DHT22;368;48.698;9.116;2023-08-01T03:53:24;17.40;99.90
770;DHT22;368;48.698;9.116;2023-08-01T03:55:52;17.40;99.90
770;DHT22;368;48.698;9.116;2023-08-01T03:58:19;17.40;99.90
770;DHT22;368;48.698;9.116;2023-08-01T04:00:45;17.50;99.90
770;DHT22;368;48.698;9.116;2023-08-01T04:03:12;17.50;99.90
770;DHT22;368;48.698;9.116;2023-08-01T04:05:39;17.50;99.90
770;DHT22;368;48.698;9.116;2023-08-01T04:08:06;17.40;99.90
770;DHT22;368;48.698;9.116;2023-08-01T04:10:33;17.40;99.90
770;DHT22;368;48.698;9.116;2023-08-01T04:13:01;17.40;99.90
770;DHT22;368;48.698;9.116;2023-08-01T04:15:29;17.40;99.90
770;DHT22;368;48.698;9.116;2023-08-01T04:17:56;17.40;99.90
770;DHT22;368;48.698;9.116;2023-08-01T04:20:23;17.40;99.90
770;DHT22;368;48.698;9.116;2023-08-01T04:22:49;17.40;99.90
770;DHT22;368;48.698;9.116;2023-08-01T04:25:16;17.40;99.90
770;DHT22;368;48.698;9.116;2023-08-01T04:27:43;17.40;99.90
770;DHT22;368;48.698;9.116;2023-08-01T04:30:11;17.40;99.90
770;DHT22;368;48.698;9.116;2023-08-01T04:32:38;17.40;99.90
770;DHT22;368;48.698;9.116;2023-08-01T04:35:05;17.30;99.90
770;DHT22;368;48.698;9.116;2023-08-01T04:37:32;17.30;99.90
770;DHT22;368;48.698;9.116;2023-08-01T04:39:59;17.30;99.90
770;DHT22;368;48.698;9.116;2023-08-01T04:42:26;17.30;99.90
770;DHT22;368;48.698;9.116;2023-08-01T04:44:54;17.30;99.90
770;DHT22;368;48.698;9.116;2023-08-01T04:47:23;17.30;99.90
770;DHT22;368;48.698;9.116;2023-08-01T04:49:50;17.40;99.90
770;DHT22;368;48.698;9.116;2023-08-01T04:52:16;17.50;99.90
770;DHT22;368;48.698;9.116;2023-08-01T04:54:43;17.40;99.90
770;DHT22;368;48.698;9.116;2023-08-01T04:57:10;17.40;99.90
770;DHT22;368;48.698;9.116;2023-08-01T04:59:37;17.50;99.90
770;DHT22;368;48.698;9.116;2023-08-01T05:02:04;17.50;99.90
770;DHT22;368;48.698;9.116;2023-08-01T05:04:32;17.50;99.90
770;DHT22;368;48.698;9.116;2023-08-01T05:06:59;17.50;99.90
770;DHT22;368;48.698;9.116;2023-08-01T05:09:26;17.50;99.90
770;DHT22;368;48.698;9.116;2023-08-01T05:11:52;17.50;99.90
770;DHT22;368;48.698;9.116;2023-08-01T05:14:19;17.60;99.90
770;DHT22;368;48.698;9.116;2023-08-01T05:16:46;17.60;99.90
770;DHT22;368;48.698;9.116;2023-08-01T05:19:13;17.50;99.90
770;DHT22;368;48.698;9.116;2023-08-01T05:21:41;17.50;99.90
770;DHT22;368;48.698;9.116;2023-08-01T05:24:08;17.60;99.90
770;DHT22;368;48.698;9.116;2023-08-01T05:26:35;17.60;99.90
770;DHT22;368;48.698;9.116;2023-08-01T05:29:02;17.60;99.90
770;DHT22;368;48.698;9.116;2023-08-01T05:31:29;17.60;99.90
770;DHT22;368;48.698;9.116;2023-08-01T05:33:56;17.60;99.90
770;DHT22;368;48.698;9.116;2023-08-01T05:36:23;17.70;99.90
770;DHT22;368;48.698;9.116;2023-08-01T05:38:51;17.70;99.90
770;DHT22;368;48.698;9.116;2023-08-01T05:41:17;17.70;99.90
770;DHT22;368;48.698;9.116;2023-08-01T05:43:46;17.80;99.90
770;DHT22;368;48.698;9.116;2023-08-01T05:46:13;17.80;99.90
770;DHT22;368;48.698;9.116;2023-08-01T05:48:40;17.90;99.90
770;DHT22;368;48.698;9.116;2023-08-01T05:51:07;17.90;99.90
770;DHT22;368;48.698;9.116;2023-08-01T05:53:33;18.00;99.90
770;DHT22;368;48.698;9.116;2023-08-01T05:56:02;18.00;99.90
770;DHT22;368;48.698;9.116;2023-08-01T05:58:30;18.00;99.90
770;DHT22;368;48.698;9.116;2023-08-01T06:00:57;18.00;99.90
770;DHT22;368;48.698;9.116;2023-08-01T06:03:23;18.00;99.90
770;DHT22;368;48.698;9.116;2023-08-01T06:05:50;18.00;99.90
770;DHT22;368;48.698;9.116;2023-08-01T06:08:17;18.10;99.90
770;DHT22;368;48.698;9.116;2023-08-01T06:10:44;18.00;99.90
770;DHT22;368;48.698;9.116;2023-08-01T06:13:12;18.10;99.90
770;DHT22;368;48.698;9.116;2023-08-01T06:15:39;18.00;99.90
770;DHT22;368;48.698;9.116;2023-08-01T06:18:06;18.10;99.90
770;DHT22;368;48.698;9.116;2023-08-01T06:20:33;18.00;99.90
770;DHT22;368;48.698;9.116;2023-08-01T06:22:59;18.00;99.90
770;DHT22;368;48.698;9.116;2023-08-01T06:25:26;18.00;99.90
770;DHT22;368;48.698;9.116;2023-08-01T06:27:53;18.00;99.90
770;DHT22;368;48.698;9.116;2023-08-01T06:30:21;18.00;99.90
770;DHT22;368;48.698;9.116;2023-08-01T06:32:48;18.00;99.90
770;DHT22;368;48.698;9.116;2023-08-01T06:35:15;18.00;99.90
770;DHT22;368;48.698;9.116;2023-08-01T06:37:41;18.00;99.90
770;DHT22;368;48.698;9.116;2023-08-01T06:40:09;17.90;99.90
770;DHT22;368;48.698;9.116;2023-08-01T06:42:36;17.80;99.90
770;DHT22;368;48.698;9.116;2023-08-01T06:45:03;17.90;99.90
770;DHT22;368;48.698;9.116;2023-08-01T06:47:31;17.90;99.90
770;DHT22;368;48.698;9.116;2023-08-01T06:49:58;17.80;99.90
770;DHT22;368;48.698;9.116;2023-08-01T06:52:24;17.80;99.90
770;DHT22;368;48.698;9.116;2023-08-01T06:54:51;17.70;99.90
770;DHT22;368;48.698;9.116;2023-08-01T06:57:18;17.60;99.90
770;DHT22;368;48.698;9.116;2023-08-01T06:59:45;17.70;99.90
770;DHT22;368;48.698;9.116;2023-08-01T07:02:11;17.70;99.90
770;DHT22;368;48.698;9.116;2023-08-01T07:04:40;17.80;99.90
770;DHT22;368;48.698;9.116;2023-08-01T07:07:06;17.80;99.90
770;DHT22;368;48.698;9.116;2023-08-01T07:09:34;17.90;99.90
770;DHT22;368;48.698;9.116;2023-08-01T07:12:01;18.00;99.90
770;DHT22;368;48.698;9.116;2023-08-01T07:14:27;18.00;99.90
770;DHT22;368;48.698;9.116;2023-08-01T07:16:54;18.20;99.90
770;DHT22;368;48.698;9.116;2023-08-01T07:19:22;18.00;99.90
770;DHT22;368;48.698;9.116;2023-08-01T07:21:50;17.80;99.90
770;DHT22;368;48.698;9.116;2023-08-01T07:24:17;17.70;99.90
770;DHT22;368;48.698;9.116;2023-08-01T07:26:44;17.50;99.90
770;DHT22;368;48.698;9.116;2023-08-01T07:29:11;17.40;99.90
770;DHT22;368;48.698;9.116;2023-08-01T07:31:41;17.30;99.90
770;DHT22;368;48.698;9.116;2023-08-01T07:34:08;17.40;99.90
770;DHT22;368;48.698;9.116;2023-08-01T07:36:35;17.30;99.90
770;DHT22;368;48.698;9.116;2023-08-01T07:39:03;17.30;99.90
770;DHT22;368;48.698;9.116;2023-08-01T07:41:30;17.30;99.90
770;DHT22;368;48.698;9.116;2023-08-01T07:43:58;17.10;99.90
770;DHT22;368;48.698;9.116;2023-08-01T07:46:27;16.90;99.90
770;DHT22;368;48.698;9.116;2023-08-01T07:48:54;16.60;99.90
770;DHT22;368;48.698;9.116;2023-08-01T07:51:20;16.30;99.90
770;DHT22;368;48.698;9.116;2023-08-01T07:53:47;16.10;99.90
770;DHT22;368;48.698;9.116;2023-08-01T07:56:15;16.00;99.90
770;DHT22;368;48.698;9.116;2023-08-01T07:58:42;16.00;99.90
770;DHT22;368;48.698;9.116;2023-08-01T08:01:09;16.00;99.90
770;DHT22;368;48.698;9.116;2023-08-01T08:03:35;16.00;99.90
770;DHT22;368;48.698;9.116;2023-08-01T08:06:02;16.00;99.90
770;DHT22;368;48.698;9.116;2023-08-01T08:08:31;16.00;99.90
770;DHT22;368;48.698;9.116;2023-08-01T08:10:59;16.00;99.90
770;DHT22;368;48.698;9.116;2023-08-01T08:13:27;15.50;99.90
770;DHT22;368;48.698;9.116;2023-08-01T08:15:55;16.00;99.90
770;DHT22;368;48.698;9.116;2023-08-01T08:18:22;16.10;99.90
770;DHT22;368;48.698;9.116;2023-08-01T08:20:49;16.00;99.90
770;DHT22;368;48.698;9.116;2023-08-01T08:23:16;15.70;99.90
770;DHT22;368;48.698;9.116;2023-08-01T08:25:44;15.90;99.90
770;DHT22;368;48.698;9.116;2023-08-01T08:28:13;16.00;99.90
770;DHT22;368;48.698;9.116;2023-08-01T08:30:41;15.90;99.90
770;DHT22;368;48.698;9.116;2023-08-01T08:33:08;15.90;99.90
770;DHT22;368;48.698;9.116;2023-08-01T08:35:36;15.90;99.90
770;DHT22;368;48.698;9.116;2023-08-01T08:38:03;16.00;99.90
770;DHT22;368;48.698;9.116;2023-08-01T08:40:32;16.10;99.90
770;DHT22;368;48.698;9.116;2023-08-01T08:43:01;16.50;99.90
770;DHT22;368;48.698;9.116;2023-08-01T08:45:31;16.60;99.90
770;DHT22;368;48.698;9.116;2023-08-01T08:48:02;16.80;99.90
770;DHT22;368;48.698;9.116;2023-08-01T08:50:33;16.80;99.90
770;DHT22;368;48.698;9.116;2023-08-01T08:53:02;16.80;99.90
770;DHT22;368;48.698;9.116;2023-08-01T08:55:29;16.70;99.90
770;DHT22;368;48.698;9.116;2023-08-01T08:57:57;16.70;99.90
770;DHT22;368;48.698;9.116;2023-08-01T09:00:25;16.90;99.90
770;DHT22;368;48.698;9.116;2023-08-01T09:02:54;16.90;99.90
770;DHT22;368;48.698;9.116;2023-08-01T09:05:27;17.00;99.90
770;DHT22;368;48.698;9.116;2023-08-01T09:07:57;16.80;99.90
770;DHT22;368;48.698;9.116;2023-08-01T09:10:25;17.00;99.90
770;DHT22;368;48.698;9.116;2023-08-01T09:12:52;17.00;99.90
770;DHT22;368;48.698;9.116;2023-08-01T09:15:19;17.00;99.90
770;DHT22;368;48.698;9.116;2023-08-01T09:17:50;17.00;99.90
770;DHT22;368;48.698;9.116;2023-08-01T09:20:17;17.10;99.90
770;DHT22;368;48.698;9.116;2023-08-01T09:22:46;17.00;99.90
770;DHT22;368;48.698;9.116;2023-08-01T09:25:13;17.20;99.90
770;DHT22;368;48.698;9.116;2023-08-01T09:27:40;17.20;99.90
770;DHT22;368;48.698;9.116;2023-08-01T09:30:09;17.30;99.90
770;DHT22;368;48.698;9.116;2023-08-01T09:32:37;17.10;99.90
770;DHT22;368;48.698;9.116;2023-08-01T09:35:04;17.20;99.90
770;DHT22;368;48.698;9.116;2023-08-01T09:37:41;17.40;99.90
770;DHT22;368;48.698;9.116;2023-08-01T09:40:10;17.50;99.90
770;DHT22;368;48.698;9.116;2023-08-01T09:42:40;17.50;99.90
770;DHT22;368;48.698;9.116;2023-08-01T09:45:12;17.40;99.90
770;DHT22;368;48.698;9.116;2023-08-01T09:47:39;17.30;99.90
770;DHT22;368;48.698;9.116;2023-08-01T09:50:08;17.20;99.90
770;DHT22;368;48.698;9.116;2023-08-01T09:52:35;17.30;99.90
770;DHT22;368;48.698;9.116;2023-08-01T09:55:02;17.30;99.90
770;DHT22;368;48.698;9.116;2023-08-01T09:57:31;17.40;99.90
770;DHT22;368;48.698;9.116;2023-08-01T09:59:58;17.50;99.90
770;DHT22;368;48.698;9.116;2023-08-01T10:02:26;17.70;99.90
770;DHT22;368;48.698;9.116;2023-08-01T10:04:57;17.80;99.90
770;DHT22;368;48.698;9.116;2023-08-01T10:07:28;17.80;99.90
770;DHT22;368;48.698;9.116;2023-08-01T10:09:58;17.70;99.90
770;DHT22;368;48.698;9.116;2023-08-01T10:12:26;17.90;99.90
770;DHT22;368;48.698;9.116;2023-08-01T10:14:55;17.90;99.90
770;DHT22;368;48.698;9.116;2023-08-01T10:17:24;17.80;99.90
770;DHT22;368;48.698;9.116;2023-08-01T10:19:53;18.00;99.90
770;DHT22;368;48.698;9.116;2023-08-01T10:22:23;18.00;99.90
770;DHT22;368;48.698;9.116;2023-08-01T10:24:51;18.00;99.90
770;DHT22;368;48.698;9.116;2023-08-01T10:27:19;18.10;99.90
770;DHT22;368;48.698;9.116;2023-08-01T10:29:58;18.00;99.90
770;DHT22;368;48.698;9.116;2023-08-01T10:32:31;18.00;99.90
770;DHT22;368;48.698;9.116;2023-08-01T10:34:58;18.20;99.90
770;DHT22;368;48.698;9.116;2023-08-01T10:37:24;18.40;99.90
770;DHT22;368;48.698;9.116;2023-08-01T10:39:56;18.50;99.90
770;DHT22;368;48.698;9.116;2023-08-01T10:42:23;18.60;99.90
770;DHT22;368;48.698;9.116;2023-08-01T10:44:50;19.20;99.90
770;DHT22;368;48.698;9.116;2023-08-01T10:47:26;20.00;99.90
770;DHT22;368;48.698;9.116;2023-08-01T10:49:53;21.00;99.90
770;DHT22;368;48.698;9.116;2023-08-01T10:52:21;22.30;99.90
770;DHT22;368;48.698;9.116;2023-08-01T10:54:56;22.20;99.90
770;DHT22;368;48.698;9.116;2023-08-01T10:57:23;21.10;99.90
770;DHT22;368;48.698;9.116;2023-08-01T10:59:50;20.30;99.90
770;DHT22;368;48.698;9.116;2023-08-01T11:02:22;19.60;99.90
770;DHT22;368;48.698;9.116;2023-08-01T11:04:57;19.20;99.90
770;DHT22;368;48.698;9.116;2023-08-01T11:07:24;18.90;99.90
770;DHT22;368;48.698;9.116;2023-08-01T11:10:06;19.20;99.90
770;DHT22;368;48.698;9.116;2023-08-01T11:12:34;19.30;99.90
770;DHT22;368;48.698;9.116;2023-08-01T11:15:02;20.00;99.90
770;DHT22;368;48.698;9.116;2023-08-01T11:17:30;22.30;99.90
770;DHT22;368;48.698;9.116;2023-08-01T11:20:03;23.10;99.90
770;DHT22;368;48.698;9.116;2023-08-01T11:22:30;24.20;99.90
770;DHT22;368;48.698;9.116;2023-08-01T11:24:57;25.00;99.00
770;DHT22;368;48.698;9.116;2023-08-01T11:27:24;23.30;99.60
770;DHT22;368;48.698;9.116;2023-08-01T11:29:52;23.60;99.10
770;DHT22;368;48.698;9.116;2023-08-01T11:32:19;23.70;99.90
770;DHT22;368;48.698;9.116;2023-08-01T11:34:47;23.90;98.30
770;DHT22;368;48.698;9.116;2023-08-01T11:37:17;23.00;99.10
770;DHT22;368;48.698;9.116;2023-08-01T11:39:44;22.10;99.60
770;DHT22;368;48.698;9.116;2023-08-01T11:42:15;21.90;98.30
770;DHT22;368;48.698;9.116;2023-08-01T11:44:42;21.80;99.50
770;DHT22;368;48.698;9.116;2023-08-01T11:47:13;22.80;96.70
770;DHT22;368;48.698;9.116;2023-08-01T11:49:45;21.80;98.50
770;DHT22;368;48.698;9.116;2023-08-01T11:52:24;22.50;97.50
770;DHT22;368;48.698;9.116;2023-08-01T11:54:51;22.90;96.30
770;DHT22;368;48.698;9.116;2023-08-01T11:57:20;23.10;96.70
770;DHT22;368;48.698;9.116;2023-08-01T11:59:47;24.10;94.40
770;DHT22;368;48.698;9.116;2023-08-01T12:02:22;24.40;93.30
770;DHT22;368;48.698;9.116;2023-08-01T12:04:49;24.80;92.50
770;DHT22;368;48.698;9.116;2023-08-01T12:07:16;25.30;90.90
770;DHT22;368;48.698;9.116;2023-08-01T12:09:54;24.20;91.50
770;DHT22;368;48.698;9.116;2023-08-01T12:12:21;24.90;93.40
770;DHT22;368;48.698;9.116;2023-08-01T12:14:48;24.30;90.40
770;DHT22;368;48.698;9.116;2023-08-01T12:17:14;23.90;91.40
770;DHT22;368;48.698;9.116;2023-08-01T12:19:41;22.70;92.90
770;DHT22;368;48.698;9.116;2023-08-01T12:22:08;23.40;93.10
770;DHT22;368;48.698;9.116;2023-08-01T12:24:35;22.90;91.20
770;DHT22;368;48.698;9.116;2023-08-01T12:27:05;22.90;92.50
770;DHT22;368;48.698;9.116;2023-08-01T12:29:32;22.90;92.10
770;DHT22;368;48.698;9.116;2023-08-01T12:31:59;22.20;92.70
770;DHT22;368;48.698;9.116;2023-08-01T12:34:26;23.50;90.40
770;DHT22;368;48.698;9.116;2023-08-01T12:36:52;23.80;90.90
770;DHT22;368;48.698;9.116;2023-08-01T12:39:19;22.50;91.20
770;DHT22;368;48.698;9.116;2023-08-01T12:41:46;24.10;90.10
770;DHT22;368;48.698;9.116;2023-08-01T12:44:14;24.60;87.80
770;DHT22;368;48.698;9.116;2023-08-01T12:46:42;25.30;88.10
770;DHT22;368;48.698;9.116;2023-08-01T12:49:09;24.90;85.00
770;DHT22;368;48.698;9.116;2023-08-01T12:51:36;25.40;85.80
770;DHT22;368;48.698;9.116;2023-08-01T12:54:03;26.20;84.00
770;DHT22;368;48.698;9.116;2023-08-01T12:56:30;25.20;84.10
770;DHT22;368;48.698;9.116;2023-08-01T12:58:57;25.50;83.70
770;DHT22;368;48.698;9.116;2023-08-01T13:01:25;25.40;84.40
770;DHT22;368;48.698;9.116;2023-08-01T13:03:52;26.10;83.30
770;DHT22;368;48.698;9.116;2023-08-01T13:06:18;26.50;78.90
770;DHT22;368;48.698;9.116;2023-08-01T13:08:45;26.30;78.90
770;DHT22;368;48.698;9.116;2023-08-01T13:11:12;26.20;76.90
770;DHT22;368;48.698;9.116;2023-08-01T13:13:40;26.20;77.10
770;DHT22;368;48.698;9.116;2023-08-01T13:16:07;26.50;77.50
770;DHT22;368;48.698;9.116;2023-08-01T13:18:35;26.50;73.90
770;DHT22;368;48.698;9.116;2023-08-01T13:21:08;26.10;73.70
770;DHT22;368;48.698;9.116;2023-08-01T13:23:35;25.80;74.80
770;DHT22;368;48.698;9.116;2023-08-01T13:26:02;26.50;73.70
770;DHT22;368;48.698;9.116;2023-08-01T13:28:29;26.10;74.10
770;DHT22;368;48.698;9.116;2023-08-01T13:30:56;26.40;72.80
770;DHT22;368;48.698;9.116;2023-08-01T13:33:22;27.30;73.30
770;DHT22;368;48.698;9.116;2023-08-01T13:35:52;26.40;73.70
770;DHT22;368;48.698;9.116;2023-08-01T13:38:19;26.80;72.60
770;DHT22;368;48.698;9.116;2023-08-01T13:40:46;27.00;72.70
770;DHT22;368;48.698;9.116;2023-08-01T13:43:13;26.50;71.10
770;DHT22;368;48.698;9.116;2023-08-01T13:45:40;26.40;71.40
770;DHT22;368;48.698;9.116;2023-08-01T13:48:07;27.00;74.00
770;DHT22;368;48.698;9.116;2023-08-01T13:50:34;28.30;70.20
770;DHT22;368;48.698;9.116;2023-08-01T13:53:02;27.90;72.80
770;DHT22;368;48.698;9.116;2023-08-01T13:55:29;27.60;72.50
770;DHT22;368;48.698;9.116;2023-08-01T13:57:55;27.30;74.80
770;DHT22;368;48.698;9.116;2023-08-01T14:00:22;27.50;73.50
770;DHT22;368;48.698;9.116;2023-08-01T14:02:49;27.40;71.60
770;DHT22;368;48.698;9.116;2023-08-01T14:05:17;27.30;71.40
770;DHT22;368;48.698;9.116;2023-08-01T14:07:44;26.70;73.80
770;DHT22;368;48.698;9.116;2023-08-01T14:10:12;26.40;76.50
770;DHT22;368;48.698;9.116;2023-08-01T14:12:40;25.90;73.50
770;DHT22;368;48.698;9.116;2023-08-01T14:15:07;26.20;74.90
770;DHT22;368;48.698;9.116;2023-08-01T14:17:34;26.60;72.30
770;DHT22;368;48.698;9.116;2023-08-01T14:20:01;25.70;72.40
770;DHT22;368;48.698;9.116;2023-08-01T14:22:30;26.20;73.30
770;DHT22;368;48.698;9.116;2023-08-01T14:24:57;26.60;70.40
770;DHT22;368;48.698;9.116;2023-08-01T14:27:25;26.50;71.20
770;DHT22;368;48.698;9.116;2023-08-01T14:29:52;26.20;69.30
770;DHT22;368;48.698;9.116;2023-08-01T14:32:19;24.40;73.50
770;DHT22;368;48.698;9.116;2023-08-01T14:34:46;24.50;72.80
770;DHT22;368;48.698;9.116;2023-08-01T14:37:13;25.10;74.40
770;DHT22;368;48.698;9.116;2023-08-01T14:39:39;25.40;74.00
770;DHT22;368;48.698;9.116;2023-08-01T14:42:06;24.90;73.70
770;DHT22;368;48.698;9.116;2023-08-01T14:44:34;24.50;74.30
770;DHT22;368;48.698;9.116;2023-08-01T14:47:01;24.50;73.40
770;DHT22;368;48.698;9.116;2023-08-01T14:49:28;24.60;74.00
770;DHT22;368;48.698;9.116;2023-08-01T14:51:55;24.10;72.50
770;DHT22;368;48.698;9.116;2023-08-01T14:54:22;24.10;75.60
770;DHT22;368;48.698;9.116;2023-08-01T14:56:50;23.90;75.30
770;DHT22;368;48.698;9.116;2023-08-01T14:59:17;24.30;75.90
770;DHT22;368;48.698;9.116;2023-08-01T15:01:45;24.50;74.00
770;DHT22;368;48.698;9.116;2023-08-01T15:04:12;24.10;73.90
770;DHT22;368;48.698;9.116;2023-08-01T15:06:39;24.00;73.70
770;DHT22;368;48.698;9.116;2023-08-01T15:09:06;24.10;75.50
770;DHT22;368;48.698;9.116;2023-08-01T15:11:32;23.90;74.90
770;DHT22;368;48.698;9.116;2023-08-01T15:13:59;23.90;74.40
770;DHT22;368;48.698;9.116;2023-08-01T15:16:26;23.80;77.50
770;DHT22;368;48.698;9.116;2023-08-01T15:18:54;23.90;76.30
770;DHT22;368;48.698;9.116;2023-08-01T15:21:21;24.10;76.40
770;DHT22;368;48.698;9.116;2023-08-01T15:23:51;24.10;76.10
770;DHT22;368;48.698;9.116;2023-08-01T15:26:17;23.60;76.80
770;DHT22;368;48.698;9.116;2023-08-01T15:28:44;23.60;76.80
770;DHT22;368;48.698;9.116;2023-08-01T15:31:11;23.30;77.90
770;DHT22;368;48.698;9.116;2023-08-01T15:33:39;23.40;78.70
770;DHT22;368;48.698;9.116;2023-08-01T15:36:08;23.60;78.10
770;DHT22;368;48.698;9.116;2023-08-01T15:38:35;23.90;77.00
770;DHT22;368;48.698;9.116;2023-08-01T15:41:03;23.70;77.50
770;DHT22;368;48.698;9.116;2023-08-01T15:43:34;23.40;78.10
770;DHT22;368;48.698;9.116;2023-08-01T15:46:01;23.30;76.70
770;DHT22;368;48.698;9.116;2023-08-01T15:48:27;23.60;78.90
770;DHT22;368;48.698;9.116;2023-08-01T15:50:54;23.40;77.80
770;DHT22;368;48.698;9.116;2023-08-01T15:53:22;23.10;78.50
770;DHT22;368;48.698;9.116;2023-08-01T15:55:54;22.70;79.60
770;DHT22;368;48.698;9.116;2023-08-01T15:58:21;23.20;80.60
770;DHT22;368;48.698;9.116;2023-08-01T16:00:48;23.40;77.60
770;DHT22;368;48.698;9.116;2023-08-01T16:03:15;23.40;78.50
770;DHT22;368;48.698;9.116;2023-08-01T16:05:42;23.20;77.90
770;DHT22;368;48.698;9.116;2023-08-01T16:08:09;23.30;79.30
770;DHT22;368;48.698;9.116;2023-08-01T16:10:39;23.30;78.90
770;DHT22;368;48.698;9.116;2023-08-01T16:13:07;23.00;78.30
770;DHT22;368;48.698;9.116;2023-08-01T16:15:34;22.90;79.30
770;DHT22;368;48.698;9.116;2023-08-01T16:18:01;23.00;77.60
770;DHT22;368;48.698;9.116;2023-08-01T16:20:28;22.70;78.10
770;DHT22;368;48.698;9.116;2023-08-01T16:22:54;22.20;78.00
770;DHT22;368;48.698;9.116;2023-08-01T16:25:21;22.20;80.30
770;DHT22;368;48.698;9.116;2023-08-01T16:27:50;22.20;79.30
770;DHT22;368;48.698;9.116;2023-08-01T16:30:17;22.40;80.70
770;DHT22;368;48.698;9.116;2023-08-01T16:32:44;22.30;79.90
770;DHT22;368;48.698;9.116;2023-08-01T16:35:11;22.40;79.50